Time;durP1;ratioP1;P1;durP2;ratioP2;P2;SDS_P1;SDS_P2;PMS_P1;PMS_P2;Temp;Humidity;BMP_temperature;BMP_pressure;BME280_temperature;BME280_humidity;BME280_pressure;Samples;Min_cycle;Max_cycle;Signal;HPM_P1;HPM_P2
2023/06/29 00:00:31;;;;;;;6.77;4.10;;;;;;;;;;5091899;28;20778;-68
2023/06/29 00:02:56;;;;;;;7.50;3.85;;;;;;;;;;5073817;28;20322;-68
2023/06/29 00:05:23;;;;;;;6.20;3.67;;;;;;;;;;5085499;28;20029;-67
2023/06/29 00:07:48;;;;;;;8.35;3.80;;;;;;;;;;5073042;27;20288;-67
2023/06/29 00:10:14;;;;;;;7.10;3.73;;;;;;;;;;5096089;28;20024;-67
2023/06/29 00:12:40;;;;;;;7.83;4.17;;;;;;;;;;5095782;28;20618;-68
2023/06/29 00:15:06;;;;;;;7.03;3.95;;;;;;;;;;5076257;28;20254;-67
2023/06/29 00:17:31;;;;;;;7.82;3.95;;;;;;;;;;5071330;28;20460;-67
2023/06/29 00:20:02;;;;;;;6.95;3.72;;;;;;;;;;5075413;28;20031;-67
2023/06/29 00:22:30;;;;;;;7.97;3.53;;;;;;;;;;5073331;28;20027;-67
2023/06/29 00:24:56;;;;;;;8.40;3.78;;;;;;;;;;5089005;28;20035;-67
2023/06/29 00:27:24;;;;;;;6.07;3.50;;;;;;;;;;5073199;28;20105;-67
2023/06/29 00:29:49;;;;;;;8.93;4.40;;;;;;;;;;5093342;28;20028;-68
2023/06/29 00:32:15;;;;;;;7.15;3.85;;;;;;;;;;5096451;28;20015;-67
2023/06/29 00:34:42;;;;;;;7.20;3.70;;;;;;;;;;5088370;28;20015;-66
2023/06/29 00:37:08;;;;;;;5.95;3.40;;;;;;;;;;5089323;28;20053;-67
2023/06/29 00:39:34;;;;;;;7.23;3.50;;;;;;;;;;5087660;28;20735;-67
2023/06/29 00:42:01;;;;;;;5.38;2.85;;;;;;;;;;5070267;28;20348;-68
2023/06/29 00:44:27;;;;;;;5.95;3.35;;;;;;;;;;5089217;28;20342;-67
2023/06/29 00:46:52;;;;;;;7.57;3.70;;;;;;;;;;5082863;28;20020;-67
2023/06/29 00:49:20;;;;;;;6.53;3.85;;;;;;;;;;5075999;28;20522;-67
2023/06/29 00:51:48;;;;;;;5.93;3.28;;;;;;;;;;5086516;27;20110;-67
2023/06/29 00:54:13;;;;;;;5.47;2.83;;;;;;;;;;5091424;27;20725;-67
2023/06/29 00:56:38;;;;;;;5.90;3.20;;;;;;;;;;5074499;27;20064;-67
2023/06/29 00:59:03;;;;;;;8.13;2.90;;;;;;;;;;5094446;27;20257;-68
2023/06/29 01:01:31;;;;;;;6.60;3.27;;;;;;;;;;5068766;28;20113;-68
2023/06/29 01:03:57;;;;;;;5.93;3.28;;;;;;;;;;5096177;28;20031;-67
2023/06/29 01:06:29;;;;;;;7.28;3.50;;;;;;;;;;5077411;28;20040;-67
2023/06/29 01:08:56;;;;;;;6.35;3.42;;;;;;;;;;5069681;28;20556;-67
2023/06/29 01:11:24;;;;;;;6.07;3.40;;;;;;;;;;5093326;28;20106;-68
2023/06/29 01:13:52;;;;;;;5.93;2.92;;;;;;;;;;5071874;28;20080;-68
2023/06/29 01:16:18;;;;;;;5.68;2.90;;;;;;;;;;5079225;28;20082;-67
2023/06/29 01:18:46;;;;;;;5.65;2.65;;;;;;;;;;5093664;27;20028;-67
2023/06/29 01:21:12;;;;;;;5.47;2.97;;;;;;;;;;5073468;28;20050;-68
2023/06/29 01:23:38;;;;;;;6.43;3.20;;;;;;;;;;5079938;27;20008;-69
2023/06/29 01:26:05;;;;;;;5.72;2.80;;;;;;;;;;5090117;27;20024;-67
2023/06/29 01:28:36;;;;;;;5.53;2.67;;;;;;;;;;5088651;27;20725;-68
2023/06/29 01:31:04;;;;;;;7.15;2.70;;;;;;;;;;5097587;27;20038;-67
2023/06/29 01:33:32;;;;;;;6.95;3.03;;;;;;;;;;5070768;28;20018;-67
2023/06/29 01:36:05;;;;;;;8.20;3.10;;;;;;;;;;5072383;28;20027;-69
2023/06/29 01:38:32;;;;;;;5.45;2.88;;;;;;;;;;5078925;28;20079;-66
2023/06/29 01:40:58;;;;;;;6.18;2.80;;;;;;;;;;5078958;28;20028;-67
2023/06/29 01:43:28;;;;;;;6.15;3.33;;;;;;;;;;5078533;28;20371;-67
2023/06/29 01:45:53;;;;;;;7.07;3.10;;;;;;;;;;5091237;28;20110;-67
2023/06/29 01:48:18;;;;;;;6.13;3.13;;;;;;;;;;5075510;27;20027;-67
2023/06/29 01:50:44;;;;;;;5.75;2.70;;;;;;;;;;5085411;28;20096;-67
2023/06/29 01:53:09;;;;;;;5.78;2.83;;;;;;;;;;5092025;27;20016;-67
2023/06/29 01:55:34;;;;;;;5.85;2.83;;;;;;;;;;5087985;28;20031;-67
2023/06/29 01:57:59;;;;;;;6.60;2.60;;;;;;;;;;5085547;28;20119;-67
2023/06/29 02:00:26;;;;;;;6.97;2.63;;;;;;;;;;5078781;28;20054;-66
2023/06/29 02:02:54;;;;;;;6.68;2.65;;;;;;;;;;5070907;28;20298;-67
2023/06/29 02:05:22;;;;;;;6.55;2.60;;;;;;;;;;5093429;27;20020;-67
2023/06/29 02:07:47;;;;;;;6.20;2.83;;;;;;;;;;5071254;28;20038;-67
2023/06/29 02:10:12;;;;;;;5.93;2.90;;;;;;;;;;5092974;28;20617;-67
2023/06/29 02:12:39;;;;;;;7.27;3.00;;;;;;;;;;5092718;27;20542;-67
2023/06/29 02:15:07;;;;;;;5.70;2.80;;;;;;;;;;5074396;28;20246;-68
2023/06/29 02:17:34;;;;;;;8.57;3.33;;;;;;;;;;5066339;28;20099;-67
2023/06/29 02:20:00;;;;;;;6.22;2.70;;;;;;;;;;5071004;28;20042;-67
2023/06/29 02:22:27;;;;;;;5.40;2.80;;;;;;;;;;5088383;27;20023;-65
2023/06/29 02:25:00;;;;;;;7.05;2.90;;;;;;;;;;5078084;27;20848;-67
2023/06/29 02:27:25;;;;;;;5.53;2.97;;;;;;;;;;5090259;27;20034;-67
2023/06/29 02:29:50;;;;;;;6.60;3.10;;;;;;;;;;5073555;28;20023;-68
2023/06/29 02:32:20;;;;;;;7.50;2.90;;;;;;;;;;5091385;27;20657;-67
2023/06/29 02:34:45;;;;;;;5.45;2.50;;;;;;;;;;5070823;28;20030;-67
2023/06/29 02:37:10;;;;;;;6.57;2.80;;;;;;;;;;5089978;28;20015;-67
2023/06/29 02:39:36;;;;;;;5.30;3.10;;;;;;;;;;5082978;27;20806;-68
2023/06/29 02:42:01;;;;;;;6.47;2.90;;;;;;;;;;5094956;27;20095;-67
2023/06/29 02:44:27;;;;;;;6.10;2.85;;;;;;;;;;5094103;27;20023;-67
2023/06/29 02:46:52;;;;;;;7.45;2.85;;;;;;;;;;5071507;28;20020;-67
2023/06/29 02:49:17;;;;;;;7.53;3.20;;;;;;;;;;5071035;28;20122;-67
2023/06/29 02:51:42;;;;;;;6.27;3.07;;;;;;;;;;5071563;28;20253;-67
2023/06/29 02:54:08;;;;;;;6.63;3.10;;;;;;;;;;5068656;28;20272;-68
2023/06/29 02:56:33;;;;;;;5.87;3.17;;;;;;;;;;5066549;28;20126;-67
2023/06/29 02:58:59;;;;;;;6.63;3.20;;;;;;;;;;5085785;27;20689;-67
2023/06/29 03:01:24;;;;;;;5.93;3.10;;;;;;;;;;5065268;27;20019;-67
2023/06/29 03:03:50;;;;;;;6.78;3.13;;;;;;;;;;5070966;28;20023;-67
2023/06/29 03:06:15;;;;;;;7.47;3.10;;;;;;;;;;5072202;28;20015;-68
2023/06/29 03:08:42;;;;;;;8.27;3.07;;;;;;;;;;5086417;27;20031;-67
2023/06/29 03:11:10;;;;;;;5.68;2.97;;;;;;;;;;5069604;28;20621;-67
2023/06/29 03:13:40;;;;;;;6.38;3.13;;;;;;;;;;5067496;27;20024;-68
2023/06/29 03:16:05;;;;;;;6.32;3.40;;;;;;;;;;5101426;27;20468;-67
2023/06/29 03:18:30;;;;;;;7.17;3.47;;;;;;;;;;5085261;28;20027;-67
2023/06/29 03:20:56;;;;;;;7.20;3.50;;;;;;;;;;5095925;27;20265;-68
2023/06/29 03:23:24;;;;;;;6.55;3.22;;;;;;;;;;5093754;28;20020;-69
2023/06/29 03:25:49;;;;;;;6.65;3.25;;;;;;;;;;5082562;28;20019;-67
2023/06/29 03:28:16;;;;;;;10.63;3.30;;;;;;;;;;5093098;27;20054;-68
2023/06/29 03:30:42;;;;;;;8.70;3.38;;;;;;;;;;5066098;28;20262;-66
2023/06/29 03:33:09;;;;;;;7.80;3.30;;;;;;;;;;5084647;27;20540;-68
2023/06/29 03:35:35;;;;;;;6.47;3.40;;;;;;;;;;5081136;28;20020;-67
2023/06/29 03:38:02;;;;;;;7.77;3.10;;;;;;;;;;5086685;28;20026;-67
2023/06/29 03:40:27;;;;;;;6.07;3.28;;;;;;;;;;5076775;28;20304;-67
2023/06/29 03:42:53;;;;;;;6.53;3.50;;;;;;;;;;5093776;28;20099;-67
2023/06/29 03:45:18;;;;;;;5.38;2.95;;;;;;;;;;5073765;28;20108;-67
2023/06/29 03:47:43;;;;;;;6.90;3.53;;;;;;;;;;5072397;28;20115;-67
2023/06/29 03:50:09;;;;;;;6.93;3.10;;;;;;;;;;5095109;27;20245;-67
2023/06/29 03:52:34;;;;;;;6.80;3.20;;;;;;;;;;5087983;28;20250;-67
2023/06/29 03:54:59;;;;;;;5.40;3.03;;;;;;;;;;5089106;28;20027;-66
2023/06/29 03:57:24;;;;;;;6.27;3.13;;;;;;;;;;5074076;28;20254;-67
2023/06/29 03:59:50;;;;;;;5.97;3.20;;;;;;;;;;5088632;28;21134;-67
2023/06/29 04:02:17;;;;;;;6.50;2.87;;;;;;;;;;5091838;27;20026;-67
2023/06/29 04:04:43;;;;;;;6.10;3.33;;;;;;;;;;5070866;28;20612;-67
2023/06/29 04:07:13;;;;;;;6.88;3.20;;;;;;;;;;5093677;28;20027;-67
2023/06/29 04:09:38;;;;;;;6.82;3.25;;;;;;;;;;5073294;28;20034;-67
2023/06/29 04:12:04;;;;;;;6.13;3.07;;;;;;;;;;5074027;28;20027;-66
2023/06/29 04:14:30;;;;;;;6.93;3.10;;;;;;;;;;5093870;27;20021;-67
2023/06/29 04:16:55;;;;;;;7.28;3.40;;;;;;;;;;5072747;28;20081;-67
2023/06/29 04:19:23;;;;;;;7.70;3.53;;;;;;;;;;5073085;28;20016;-66
2023/06/29 04:21:48;;;;;;;6.25;3.20;;;;;;;;;;5067587;28;20035;-66
2023/06/29 04:24:13;;;;;;;5.63;3.03;;;;;;;;;;5077308;28;20015;-67
2023/06/29 04:26:41;;;;;;;6.28;3.15;;;;;;;;;;5090728;28;20020;-67
2023/06/29 04:29:06;;;;;;;7.03;3.17;;;;;;;;;;5074173;28;20030;-66
2023/06/29 04:31:32;;;;;;;6.88;3.33;;;;;;;;;;5096269;28;20024;-67
2023/06/29 04:34:02;;;;;;;6.70;3.28;;;;;;;;;;5091863;28;20058;-68
2023/06/29 04:36:28;;;;;;;6.15;3.20;;;;;;;;;;5089570;28;20023;-67
2023/06/29 04:38:53;;;;;;;6.22;3.13;;;;;;;;;;5070197;28;20065;-67
2023/06/29 04:41:18;;;;;;;6.72;3.20;;;;;;;;;;5082228;28;20016;-67
2023/06/29 04:43:47;;;;;;;7.05;3.20;;;;;;;;;;5094219;28;20019;-67
2023/06/29 04:46:13;;;;;;;7.00;3.00;;;;;;;;;;5074648;28;20077;-67
2023/06/29 04:48:41;;;;;;;6.28;2.90;;;;;;;;;;5087773;28;20040;-66
2023/06/29 04:51:06;;;;;;;5.70;3.10;;;;;;;;;;5073140;28;20047;-67
2023/06/29 04:53:32;;;;;;;5.25;2.90;;;;;;;;;;5070330;28;20131;-67
2023/06/29 04:56:01;;;;;;;6.15;2.85;;;;;;;;;;5096299;28;20015;-67
2023/06/29 04:58:28;;;;;;;6.55;3.15;;;;;;;;;;5065974;28;20031;-66
2023/06/29 05:00:56;;;;;;;6.22;3.13;;;;;;;;;;5092436;28;20028;-67
2023/06/29 05:03:24;;;;;;;6.35;2.95;;;;;;;;;;5071445;28;20117;-67
2023/06/29 05:05:50;;;;;;;5.90;2.83;;;;;;;;;;5068090;28;20024;-66
2023/06/29 05:08:17;;;;;;;7.30;2.90;;;;;;;;;;5087553;28;20043;-66
2023/06/29 05:10:45;;;;;;;6.43;3.13;;;;;;;;;;5072938;28;20123;-66
2023/06/29 05:13:10;;;;;;;7.65;3.13;;;;;;;;;;5087740;28;20015;-67
2023/06/29 05:15:35;;;;;;;7.60;3.37;;;;;;;;;;5091473;28;20147;-67
2023/06/29 05:18:01;;;;;;;7.15;2.92;;;;;;;;;;5076414;28;20277;-66
2023/06/29 05:20:26;;;;;;;6.80;2.85;;;;;;;;;;5070677;28;20016;-65
2023/06/29 05:22:54;;;;;;;6.75;3.10;;;;;;;;;;5070656;28;20088;-67
2023/06/29 05:25:21;;;;;;;7.20;3.40;;;;;;;;;;5085868;28;20020;-68
2023/06/29 05:27:46;;;;;;;6.75;3.10;;;;;;;;;;5069778;28;20194;-66
2023/06/29 05:30:12;;;;;;;5.43;2.90;;;;;;;;;;5069127;28;20462;-67
2023/06/29 05:32:40;;;;;;;6.25;3.35;;;;;;;;;;5086609;27;20043;-68
2023/06/29 05:35:06;;;;;;;7.20;3.17;;;;;;;;;;5086583;28;20720;-66
2023/06/29 05:37:32;;;;;;;6.85;3.38;;;;;;;;;;5077534;28;20034;-67
2023/06/29 05:40:02;;;;;;;5.88;3.30;;;;;;;;;;5089127;28;20064;-66
2023/06/29 05:42:29;;;;;;;6.22;3.20;;;;;;;;;;5093445;27;20049;-66
2023/06/29 05:44:55;;;;;;;5.55;3.13;;;;;;;;;;5069123;28;20023;-66
2023/06/29 05:47:20;;;;;;;5.78;3.03;;;;;;;;;;5070930;28;20091;-65
2023/06/29 05:49:48;;;;;;;6.90;3.47;;;;;;;;;;5091799;28;20042;-68
2023/06/29 05:52:13;;;;;;;6.13;3.30;;;;;;;;;;5085589;27;20016;-68
2023/06/29 05:54:41;;;;;;;7.63;4.43;;;;;;;;;;5079629;28;20031;-68
2023/06/29 05:57:06;;;;;;;6.75;3.42;;;;;;;;;;5087832;28;20067;-67
2023/06/29 05:59:31;;;;;;;7.15;3.72;;;;;;;;;;5089187;27;20016;-68
2023/06/29 06:01:57;;;;;;;6.33;3.43;;;;;;;;;;5091843;27;20599;-68
2023/06/29 06:04:22;;;;;;;6.63;3.83;;;;;;;;;;5074270;28;20281;-67
2023/06/29 06:06:47;;;;;;;6.80;3.60;;;;;;;;;;5075028;28;20042;-68
2023/06/29 06:09:13;;;;;;;5.38;3.30;;;;;;;;;;5069848;28;20039;-68
2023/06/29 06:11:38;;;;;;;7.17;3.40;;;;;;;;;;5076515;28;20011;-68
2023/06/29 06:14:03;;;;;;;7.43;3.50;;;;;;;;;;5091298;28;20266;-68
2023/06/29 06:16:28;;;;;;;6.33;3.50;;;;;;;;;;5086896;27;20316;-68
2023/06/29 06:18:54;;;;;;;7.80;3.67;;;;;;;;;;5089896;27;21072;-68
2023/06/29 06:21:23;;;;;;;5.80;3.33;;;;;;;;;;5077889;28;20012;-68
2023/06/29 06:23:51;;;;;;;7.35;3.55;;;;;;;;;;5071023;27;20022;-67
2023/06/29 06:26:16;;;;;;;7.80;3.53;;;;;;;;;;5072314;28;20023;-67
2023/06/29 06:28:41;;;;;;;6.57;3.60;;;;;;;;;;5068623;28;20035;-68
2023/06/29 06:31:07;;;;;;;5.83;3.13;;;;;;;;;;5073148;28;20087;-69
2023/06/29 06:33:32;;;;;;;7.00;3.22;;;;;;;;;;5069798;28;20757;-68
2023/06/29 06:35:59;;;;;;;8.88;3.63;;;;;;;;;;5097751;27;20540;-70
2023/06/29 06:38:24;;;;;;;6.88;3.20;;;;;;;;;;5070724;28;20478;-68
2023/06/29 06:40:51;;;;;;;7.57;3.70;;;;;;;;;;5070049;28;20125;-65
2023/06/29 06:43:17;;;;;;;6.55;3.67;;;;;;;;;;5090446;27;20026;-67
2023/06/29 06:45:42;;;;;;;7.78;3.22;;;;;;;;;;5075559;27;20050;-66
2023/06/29 06:48:08;;;;;;;6.05;3.50;;;;;;;;;;5078166;28;20106;-67
2023/06/29 06:50:33;;;;;;;6.23;3.00;;;;;;;;;;5082932;27;20020;-67
2023/06/29 06:53:00;;;;;;;5.90;3.47;;;;;;;;;;5085472;28;20635;-69
2023/06/29 06:55:25;;;;;;;6.65;3.45;;;;;;;;;;5066904;28;20828;-68
2023/06/29 06:57:51;;;;;;;5.50;3.38;;;;;;;;;;5080931;27;20027;-68
2023/06/29 07:00:18;;;;;;;7.47;3.40;;;;;;;;;;5086581;28;20437;-68
2023/06/29 07:02:44;;;;;;;6.95;3.90;;;;;;;;;;5077211;28;20031;-68
2023/06/29 07:05:11;;;;;;;7.70;3.70;;;;;;;;;;5084687;28;20080;-67
2023/06/29 07:07:36;;;;;;;6.47;3.78;;;;;;;;;;5092967;27;20077;-67
2023/06/29 07:10:02;;;;;;;6.17;3.40;;;;;;;;;;5087648;27;20040;-68
2023/06/29 07:12:27;;;;;;;6.93;3.40;;;;;;;;;;5064573;28;20018;-67
2023/06/29 07:14:55;;;;;;;7.80;3.50;;;;;;;;;;5074221;28;20836;-68
2023/06/29 07:17:20;;;;;;;6.20;3.75;;;;;;;;;;5092147;27;20317;-69
2023/06/29 07:19:45;;;;;;;6.10;3.43;;;;;;;;;;5075242;28;20019;-68
2023/06/29 07:22:11;;;;;;;6.47;3.70;;;;;;;;;;5091971;28;21347;-67
2023/06/29 07:24:39;;;;;;;6.03;3.73;;;;;;;;;;5072142;28;20024;-68
2023/06/29 07:27:06;;;;;;;8.27;3.75;;;;;;;;;;5090325;27;20253;-68
2023/06/29 07:29:33;;;;;;;6.10;3.63;;;;;;;;;;5075081;28;21223;-68
2023/06/29 07:31:58;;;;;;;7.45;3.65;;;;;;;;;;5077715;28;20968;-67
2023/06/29 07:34:24;;;;;;;7.13;3.88;;;;;;;;;;5092875;28;20082;-69
2023/06/29 07:36:51;;;;;;;7.75;4.07;;;;;;;;;;5070425;28;20040;-68
2023/06/29 07:39:17;;;;;;;6.30;3.83;;;;;;;;;;5078353;28;20027;-68
2023/06/29 07:41:42;;;;;;;7.00;3.83;;;;;;;;;;5098419;27;20084;-68
2023/06/29 07:44:10;;;;;;;6.10;3.50;;;;;;;;;;5076722;28;20020;-67
2023/06/29 07:46:35;;;;;;;6.55;3.33;;;;;;;;;;5083145;27;20142;-69
2023/06/29 07:49:01;;;;;;;6.63;3.40;;;;;;;;;;5088278;28;20032;-69
2023/06/29 07:51:32;;;;;;;6.78;3.42;;;;;;;;;;5093110;27;20031;-68
2023/06/29 07:54:00;;;;;;;6.97;3.70;;;;;;;;;;5070839;28;20020;-68
2023/06/29 07:56:26;;;;;;;7.68;3.65;;;;;;;;;;5086163;28;20024;-69
2023/06/29 07:58:51;;;;;;;8.70;3.50;;;;;;;;;;5071279;28;20737;-67
2023/06/29 08:01:17;;;;;;;7.47;3.63;;;;;;;;;;5079920;28;20019;-68
2023/06/29 08:03:44;;;;;;;6.32;3.60;;;;;;;;;;5085639;28;20023;-68
2023/06/29 08:06:09;;;;;;;9.68;3.80;;;;;;;;;;5090382;28;20024;-68
2023/06/29 08:08:34;;;;;;;9.23;4.50;;;;;;;;;;5089126;28;21009;-68
2023/06/29 08:11:01;;;;;;;6.30;3.50;;;;;;;;;;5078982;28;20505;-67
2023/06/29 08:13:27;;;;;;;6.80;3.47;;;;;;;;;;5072747;28;20340;-67
2023/06/29 08:15:52;;;;;;;6.55;3.38;;;;;;;;;;5074129;28;20054;-69
2023/06/29 08:18:17;;;;;;;6.32;2.92;;;;;;;;;;5071596;28;20024;-68
2023/06/29 08:20:46;;;;;;;8.63;3.80;;;;;;;;;;5092169;28;20035;-67
2023/06/29 08:23:11;;;;;;;7.72;3.28;;;;;;;;;;5091587;28;20261;-68
2023/06/29 08:25:36;;;;;;;5.80;3.45;;;;;;;;;;5076545;28;20012;-68
2023/06/29 08:28:02;;;;;;;5.37;3.13;;;;;;;;;;5071234;27;20027;-68
2023/06/29 08:30:27;;;;;;;6.18;3.15;;;;;;;;;;5096161;28;20246;-67
2023/06/29 08:32:52;;;;;;;7.00;3.42;;;;;;;;;;5089144;28;20125;-67
2023/06/29 08:35:17;;;;;;;6.18;3.40;;;;;;;;;;5078733;28;20020;-68
2023/06/29 08:37:43;;;;;;;6.13;3.27;;;;;;;;;;5089678;28;20026;-67
2023/06/29 08:40:09;;;;;;;5.68;3.30;;;;;;;;;;5067762;28;20261;-68
2023/06/29 08:42:37;;;;;;;6.72;3.92;;;;;;;;;;5089077;28;20024;-68
2023/06/29 08:45:05;;;;;;;7.28;3.40;;;;;;;;;;5075036;28;20027;-67
2023/06/29 08:47:32;;;;;;;6.60;3.40;;;;;;;;;;5086263;28;20080;-68
2023/06/29 08:49:57;;;;;;;7.47;3.60;;;;;;;;;;5068718;28;20039;-68
2023/06/29 08:52:25;;;;;;;6.47;3.45;;;;;;;;;;5077898;28;20458;-68
2023/06/29 08:54:51;;;;;;;5.55;2.58;;;;;;;;;;5084143;28;20016;-68
2023/06/29 08:57:16;;;;;;;7.82;3.30;;;;;;;;;;5093615;28;20064;-68
2023/06/29 08:59:41;;;;;;;7.00;3.30;;;;;;;;;;5072502;28;20451;-68
2023/06/29 09:02:07;;;;;;;5.13;2.80;;;;;;;;;;5092987;28;20008;-67
2023/06/29 09:04:32;;;;;;;6.53;3.28;;;;;;;;;;5084493;28;20066;-68
2023/06/29 09:06:57;;;;;;;6.07;3.03;;;;;;;;;;5070660;28;20012;-68
2023/06/29 09:09:23;;;;;;;6.15;3.17;;;;;;;;;;5075083;28;20036;-70
2023/06/29 09:11:48;;;;;;;8.15;2.90;;;;;;;;;;5077707;27;20031;-69
2023/06/29 09:14:13;;;;;;;8.15;3.00;;;;;;;;;;5086066;28;20064;-68
2023/06/29 09:16:52;;;;;;;5.50;3.00;;;;;;;;;;5074914;28;20067;-69
2023/06/29 09:19:21;;;;;;;5.83;3.00;;;;;;;;;;5095112;28;20074;-68
2023/06/29 09:21:47;;;;;;;;;;;;;;;;;;5091688;28;20253;-68
2023/06/29 09:24:13;;;;;;;6.28;2.90;;;;;;;;;;5094844;27;19954;-67
2023/06/29 09:26:38;;;;;;;8.65;2.97;;;;;;;;;;5092332;28;20401;-67
2023/06/29 09:29:04;;;;;;;5.77;3.00;;;;;;;;;;5091001;27;20443;-68
2023/06/29 09:31:33;;;;;;;6.38;3.00;;;;;;;;;;5078974;28;20260;-68
2023/06/29 09:34:17;;;;;;;6.28;3.20;;;;;;;;;;5075097;28;20107;-68
2023/06/29 09:36:43;;;;;;;5.38;3.08;;;;;;;;;;5089177;27;20554;-71
2023/06/29 09:39:09;;;;;;;5.10;2.83;;;;;;;;;;5077800;28;20012;-68
2023/06/29 09:41:52;;;;;;;5.30;2.80;;;;;;;;;;5074914;27;20126;-69
2023/06/29 09:44:21;;;;;;;5.15;2.83;;;;;;;;;;5079524;28;20027;-68
2023/06/29 09:46:50;;;;;;;6.45;3.38;;;;;;;;;;5070859;27;20019;-69
2023/06/29 09:49:17;;;;;;;5.40;2.92;;;;;;;;;;5078537;28;20028;-69
2023/06/29 09:51:43;;;;;;;5.10;2.80;;;;;;;;;;5067389;28;20047;-69
2023/06/29 09:54:15;;;;;;;4.97;2.72;;;;;;;;;;5068507;28;20044;-68
2023/06/29 09:56:43;;;;;;;6.07;3.05;;;;;;;;;;5075920;27;20034;-70
2023/06/29 09:59:12;;;;;;;6.75;3.25;;;;;;;;;;5088717;27;20051;-68
2023/06/29 10:01:40;;;;;;;6.03;3.17;;;;;;;;;;5071846;28;20077;-68
2023/06/29 10:04:06;;;;;;;6.00;3.40;;;;;;;;;;5089146;27;20592;-67
2023/06/29 10:06:36;;;;;;;8.30;3.05;;;;;;;;;;5095216;27;20012;-69
2023/06/29 10:09:01;;;;;;;5.55;2.90;;;;;;;;;;5094835;27;20028;-68
2023/06/29 10:11:31;;;;;;;6.15;3.10;;;;;;;;;;5090322;28;20044;-68
2023/06/29 10:14:04;;;;;;;6.18;3.10;;;;;;;;;;5091873;28;20062;-69
2023/06/29 10:16:34;;;;;;;6.40;2.92;;;;;;;;;;5097591;27;20044;-69
2023/06/29 10:19:14;;;;;;;5.90;2.83;;;;;;;;;;5073703;28;20024;-67
2023/06/29 10:21:40;;;;;;;4.95;2.53;;;;;;;;;;5085444;27;20030;-67
2023/06/29 10:24:06;;;;;;;5.45;2.90;;;;;;;;;;5058718;28;20019;-68
2023/06/29 10:26:34;;;;;;;5.10;2.53;;;;;;;;;;5089866;27;20693;-68
2023/06/29 10:28:59;;;;;;;5.30;2.63;;;;;;;;;;5091387;28;20088;-68
2023/06/29 10:31:32;;;;;;;5.75;3.20;;;;;;;;;;5096975;27;20019;-68
2023/06/29 10:33:57;;;;;;;5.10;2.67;;;;;;;;;;5078235;28;20034;-68
2023/06/29 10:36:23;;;;;;;6.35;2.38;;;;;;;;;;5097465;27;20653;-68
2023/06/29 10:38:51;;;;;;;5.43;2.92;;;;;;;;;;5078967;27;20020;-68
2023/06/29 10:41:27;;;;;;;5.77;2.97;;;;;;;;;;5077819;28;20111;-68
2023/06/29 10:43:55;;;;;;;5.75;2.85;;;;;;;;;;5089747;27;20486;-68
2023/06/29 10:46:39;;;;;;;5.22;2.90;;;;;;;;;;5082852;28;20016;-68
2023/06/29 10:49:04;;;;;;;5.80;2.65;;;;;;;;;;5089517;27;20854;-67
2023/06/29 10:51:30;;;;;;;5.53;2.70;;;;;;;;;;5077267;27;20020;-68
2023/06/29 10:53:55;;;;;;;5.83;3.20;;;;;;;;;;5091012;27;20027;-67
2023/06/29 10:56:31;;;;;;;6.03;3.00;;;;;;;;;;5069519;27;20266;-68
2023/06/29 10:58:58;;;;;;;6.95;2.67;;;;;;;;;;5086239;27;20012;-68
2023/06/29 11:01:26;;;;;;;5.57;2.72;;;;;;;;;;5076815;28;20019;-67
2023/06/29 11:03:52;;;;;;;7.25;2.78;;;;;;;;;;5076531;28;20052;-67
2023/06/29 11:06:17;;;;;;;5.22;2.60;;;;;;;;;;5092488;27;21196;-70
2023/06/29 11:08:47;;;;;;;4.97;2.50;;;;;;;;;;5076871;28;20074;-69
2023/06/29 11:11:14;;;;;;;5.15;2.70;;;;;;;;;;5071193;28;20021;-68
2023/06/29 11:13:41;;;;;;;6.35;3.28;;;;;;;;;;5087604;28;20104;-70
2023/06/29 11:16:07;;;;;;;5.63;3.20;;;;;;;;;;5084233;27;20051;-68
2023/06/29 11:18:37;;;;;;;5.20;2.90;;;;;;;;;;5084301;27;20096;-67
2023/06/29 11:21:02;;;;;;;5.00;2.67;;;;;;;;;;5071787;28;20020;-67
2023/06/29 11:23:27;;;;;;;5.65;2.90;;;;;;;;;;5071234;28;20028;-68
2023/06/29 11:25:53;;;;;;;5.07;2.50;;;;;;;;;;5073454;28;20023;-67
2023/06/29 11:28:18;;;;;;;6.20;2.83;;;;;;;;;;5082627;28;21745;-67
2023/06/29 11:30:46;;;;;;;5.73;2.77;;;;;;;;;;5098497;28;20332;-68
2023/06/29 11:33:13;;;;;;;5.50;2.80;;;;;;;;;;5088205;27;20835;-68
2023/06/29 11:35:41;;;;;;;5.35;3.08;;;;;;;;;;5067875;28;20085;-67
2023/06/29 11:38:09;;;;;;;5.85;2.80;;;;;;;;;;5083778;28;20020;-67
2023/06/29 11:40:36;;;;;;;5.03;2.67;;;;;;;;;;5080616;28;20098;-68
2023/06/29 11:43:02;;;;;;;5.47;2.78;;;;;;;;;;5093003;27;20028;-67
2023/06/29 11:45:31;;;;;;;5.57;2.63;;;;;;;;;;5084995;27;20101;-68
2023/06/29 11:47:56;;;;;;;5.27;2.73;;;;;;;;;;5079017;28;20390;-69
2023/06/29 11:50:24;;;;;;;5.43;2.58;;;;;;;;;;5066486;28;20019;-68
2023/06/29 11:52:49;;;;;;;5.43;2.67;;;;;;;;;;5075999;28;20020;-68
2023/06/29 11:55:15;;;;;;;5.38;2.53;;;;;;;;;;5080625;28;20024;-68
2023/06/29 11:57:41;;;;;;;6.15;3.08;;;;;;;;;;5081225;28;20027;-68
2023/06/29 12:00:16;;;;;;;5.95;2.88;;;;;;;;;;5087910;27;20024;-69
2023/06/29 12:02:44;;;;;;;4.97;2.72;;;;;;;;;;5084084;28;20390;-68
2023/06/29 12:05:09;;;;;;;4.82;2.22;;;;;;;;;;5076930;28;20047;-68
2023/06/29 12:07:37;;;;;;;4.97;2.30;;;;;;;;;;5090816;28;20726;-69
2023/06/29 12:10:04;;;;;;;6.00;2.50;;;;;;;;;;5082564;28;20130;-68
2023/06/29 12:12:32;;;;;;;5.25;2.80;;;;;;;;;;5087449;27;20047;-68
2023/06/29 12:15:10;;;;;;;6.68;2.63;;;;;;;;;;5077663;28;20020;-68
2023/06/29 12:17:37;;;;;;;4.68;2.22;;;;;;;;;;5095142;27;20054;-67
2023/06/29 12:20:10;;;;;;;4.80;2.50;;;;;;;;;;5076095;28;20126;-68
2023/06/29 12:22:36;;;;;;;6.80;2.40;;;;;;;;;;5084945;28;20030;-70
2023/06/29 12:25:01;;;;;;;5.38;2.72;;;;;;;;;;5076804;27;20531;-68
2023/06/29 12:27:27;;;;;;;4.80;2.30;;;;;;;;;;5092205;27;20020;-69
2023/06/29 12:29:52;;;;;;;5.37;2.70;;;;;;;;;;5074913;28;20097;-67
2023/06/29 12:32:17;;;;;;;5.63;2.40;;;;;;;;;;5080266;28;20026;-67
2023/06/29 12:34:43;;;;;;;6.00;2.60;;;;;;;;;;5076694;28;21783;-68
2023/06/29 12:37:08;;;;;;;6.18;2.40;;;;;;;;;;5077396;28;20089;-69
2023/06/29 12:39:38;;;;;;;5.47;2.40;;;;;;;;;;5077535;28;20020;-66
2023/06/29 12:42:04;;;;;;;5.32;2.45;;;;;;;;;;5083841;27;20024;-68
2023/06/29 12:44:29;;;;;;;5.82;2.55;;;;;;;;;;5085942;27;20614;-67
2023/06/29 12:46:59;;;;;;;4.90;2.63;;;;;;;;;;5082694;28;20022;-68
2023/06/29 12:49:27;;;;;;;5.25;2.50;;;;;;;;;;5081080;28;20284;-68
2023/06/29 12:51:52;;;;;;;5.15;2.40;;;;;;;;;;5070517;27;20080;-68
2023/06/29 12:54:18;;;;;;;4.72;2.30;;;;;;;;;;5079357;28;20764;-68
2023/06/29 12:56:43;;;;;;;4.50;2.40;;;;;;;;;;5099915;27;20020;-69
2023/06/29 12:59:08;;;;;;;4.73;2.20;;;;;;;;;;5097966;27;20015;-69
2023/06/29 13:01:33;;;;;;;4.43;2.30;;;;;;;;;;5080639;28;20016;-69
2023/06/29 13:03:59;;;;;;;5.93;2.37;;;;;;;;;;5071228;28;20523;-69
2023/06/29 13:06:24;;;;;;;4.83;2.30;;;;;;;;;;5098008;27;20008;-69
2023/06/29 13:08:49;;;;;;;5.87;2.50;;;;;;;;;;5098219;27;20345;-69
2023/06/29 13:11:14;;;;;;;4.57;2.40;;;;;;;;;;5092177;27;20466;-69
2023/06/29 13:13:40;;;;;;;4.60;2.47;;;;;;;;;;5097198;27;20038;-70
2023/06/29 13:16:05;;;;;;;5.10;2.38;;;;;;;;;;5080687;28;20050;-68
2023/06/29 13:18:33;;;;;;;7.43;2.30;;;;;;;;;;5090225;27;20031;-70
2023/06/29 13:20:58;;;;;;;4.65;2.25;;;;;;;;;;5065727;28;21169;-71
2023/06/29 13:23:23;;;;;;;6.40;2.30;;;;;;;;;;5077813;27;20045;-71
2023/06/29 13:25:48;;;;;;;4.60;2.17;;;;;;;;;;5071108;28;20807;-69
2023/06/29 13:28:14;;;;;;;4.70;2.40;;;;;;;;;;5086834;28;20043;-69
2023/06/29 13:30:40;;;;;;;5.03;2.23;;;;;;;;;;5083982;27;20035;-68
2023/06/29 13:33:06;;;;;;;6.88;2.30;;;;;;;;;;5091203;28;20269;-69
2023/06/29 13:35:31;;;;;;;4.80;2.35;;;;;;;;;;5082340;27;20023;-69
2023/06/29 13:37:56;;;;;;;4.60;2.20;;;;;;;;;;5082704;28;20020;-68
2023/06/29 13:40:21;;;;;;;4.80;2.20;;;;;;;;;;5075797;28;20020;-71
2023/06/29 13:42:47;;;;;;;6.17;2.17;;;;;;;;;;5085609;28;20024;-69
2023/06/29 13:45:12;;;;;;;5.03;2.10;;;;;;;;;;5087716;28;20713;-69
2023/06/29 13:47:38;;;;;;;5.43;2.20;;;;;;;;;;5071882;28;20530;-68
2023/06/29 13:50:04;;;;;;;4.57;2.15;;;;;;;;;;5098431;28;20026;-69
2023/06/29 13:52:32;;;;;;;6.78;2.20;;;;;;;;;;5071098;28;20031;-68
2023/06/29 13:54:57;;;;;;;4.65;2.15;;;;;;;;;;5085991;27;20027;-68
2023/06/29 13:57:22;;;;;;;4.95;2.30;;;;;;;;;;5092192;27;20513;-68
2023/06/29 13:59:52;;;;;;;6.60;2.20;;;;;;;;;;5089078;27;20024;-67
2023/06/29 14:02:20;;;;;;;5.05;2.28;;;;;;;;;;5080004;28;20100;-68
2023/06/29 14:04:48;;;;;;;5.00;2.10;;;;;;;;;;5076557;28;20041;-69
2023/06/29 14:07:14;;;;;;;4.43;2.10;;;;;;;;;;5072883;28;20034;-65
2023/06/29 14:09:39;;;;;;;4.78;1.90;;;;;;;;;;5071353;28;20483;-67
2023/06/29 14:12:05;;;;;;;6.13;2.17;;;;;;;;;;5084097;27;20027;-67
2023/06/29 14:14:32;;;;;;;4.93;2.10;;;;;;;;;;5091210;28;20541;-68
2023/06/29 14:16:57;;;;;;;4.75;2.20;;;;;;;;;;5072600;28;20047;-66
2023/06/29 14:19:23;;;;;;;4.77;2.17;;;;;;;;;;5086833;28;20081;-67
2023/06/29 14:21:48;;;;;;;4.72;2.20;;;;;;;;;;5075925;27;20028;-68
2023/06/29 14:24:13;;;;;;;5.57;2.17;;;;;;;;;;5074877;28;20069;-65
2023/06/29 14:26:41;;;;;;;4.90;2.17;;;;;;;;;;5084079;28;20028;-66
2023/06/29 14:29:06;;;;;;;4.45;2.15;;;;;;;;;;5084411;28;20728;-64
2023/06/29 14:31:35;;;;;;;5.50;2.00;;;;;;;;;;5072675;28;20106;-67
2023/06/29 14:34:00;;;;;;;5.63;2.20;;;;;;;;;;5070794;28;20028;-67
2023/06/29 14:36:27;;;;;;;4.73;2.17;;;;;;;;;;5082641;27;20368;-66
2023/06/29 14:38:55;;;;;;;4.55;2.30;;;;;;;;;;5077273;28;20411;-68